createdAt,value
2022-10-07T00:10:00.625Z,17.00
2022-10-07T00:20:05.526Z,11.30
2022-10-07T00:30:10.219Z,11.50
2022-10-07T00:40:14.474Z,10.10
2022-10-07T00:50:24.383Z,12.00
2022-10-07T01:00:27.971Z,8.80
2022-10-07T01:10:49.010Z,11.10
2022-10-07T01:20:58.332Z,15.60
2022-10-07T01:31:07.580Z,13.00
2022-10-07T01:41:22.116Z,10.20
2022-10-07T01:51:29.051Z,14.60
2022-10-07T02:01:44.134Z,11.40
2022-10-07T02:11:57.265Z,9.30
2022-10-07T02:22:03.694Z,10.90
2022-10-07T02:32:12.225Z,11.60
2022-10-07T02:42:36.500Z,9.50
2022-10-07T02:52:44.264Z,15.40
2022-10-07T03:02:54.376Z,11.30
2022-10-07T03:13:00.007Z,16.70
2022-10-07T03:23:04.690Z,14.20
2022-10-07T03:33:09.982Z,18.30
2022-10-07T03:43:14.356Z,10.10
2022-10-07T03:53:19.458Z,9.80
2022-10-07T04:03:23.154Z,22.10
2022-10-07T04:13:27.653Z,14.00
2022-10-07T04:23:31.382Z,15.80
2022-10-07T04:33:39.634Z,14.30
2022-10-07T04:43:43.619Z,15.50
2022-10-07T04:53:57.106Z,13.70
2022-10-07T05:04:06.613Z,15.90
2022-10-07T05:14:10.578Z,14.60
2022-10-07T05:24:15.164Z,22.60
2022-10-07T05:34:20.812Z,19.30
2022-10-07T05:44:25.572Z,19.20
2022-10-07T05:54:30.048Z,18.90
2022-10-07T06:04:34.535Z,13.90
2022-10-07T06:14:38.710Z,12.50
2022-10-07T06:24:43.861Z,22.00
2022-10-07T06:34:47.929Z,12.70
2022-10-07T06:44:54.718Z,9.40
2022-10-07T06:54:59.514Z,9.30
2022-10-07T07:05:09.496Z,8.50
2022-10-07T07:15:14.526Z,9.70
2022-10-07T07:25:20.827Z,13.80
2022-10-07T07:35:29.513Z,11.30
2022-10-07T07:45:37.387Z,10.60
2022-10-07T07:55:55.698Z,44.50
2022-10-07T08:06:07.558Z,11.20
2022-10-07T08:16:14.826Z,10.40
2022-10-07T08:36:25.054Z,11.80
2022-10-07T08:46:32.867Z,11.40
2022-10-07T08:56:36.818Z,9.90
2022-10-07T09:06:52.764Z,10.80
2022-10-07T09:17:08.708Z,9.40
2022-10-07T09:27:18.503Z,11.00
2022-10-07T09:37:24.532Z,10.90
2022-10-07T09:47:37.520Z,8.70
2022-10-07T09:57:42.921Z,8.40
2022-10-07T10:07:48.580Z,6.90
2022-10-07T10:17:53.320Z,6.30
2022-10-07T10:28:14.302Z,6.90
2022-10-07T10:38:27.765Z,6.70
2022-10-07T10:48:43.622Z,7.50
2022-10-07T10:58:58.520Z,7.40
2022-10-07T11:09:04.314Z,7.50
2022-10-07T11:19:21.332Z,6.50
2022-10-07T11:29:46.554Z,6.30
2022-10-07T11:39:51.610Z,4.10
2022-10-07T11:50:08.306Z,5.20
2022-10-07T12:00:33.995Z,8.00
2022-10-07T12:10:37.683Z,4.90
2022-10-07T12:20:50.981Z,6.20
2022-10-07T12:31:03.237Z,5.20
2022-10-07T12:41:27.188Z,5.90
2022-10-07T12:51:40.758Z,4.30
2022-10-07T13:02:17.720Z,7.90
2022-10-07T13:12:33.535Z,9.00
2022-10-07T13:22:40.167Z,3.40
2022-10-07T13:32:44.261Z,6.20
2022-10-07T13:43:02.143Z,6.90
2022-10-07T13:53:06.360Z,8.50
2022-10-07T14:03:17.254Z,5.60
2022-10-07T14:13:21.817Z,5.40
2022-10-07T14:23:34.555Z,10.70
2022-10-07T14:34:13.342Z,11.80
2022-10-07T14:44:18.649Z,6.90
2022-10-07T14:54:22.948Z,7.40
2022-10-07T15:04:27.642Z,9.70
2022-10-07T15:14:32.305Z,7.20
2022-10-07T15:24:36.158Z,5.30
2022-10-07T15:34:40.370Z,13.00
2022-10-07T15:44:44.941Z,12.20
2022-10-07T15:54:48.519Z,8.30
2022-10-07T16:04:53.168Z,8.50
2022-10-07T16:14:58.301Z,7.10
2022-10-07T16:25:01.965Z,12.90
2022-10-07T16:35:06.266Z,14.50
2022-10-07T16:45:10.311Z,10.30
2022-10-07T16:55:14.925Z,10.30
2022-10-07T17:05:19.499Z,20.70
2022-10-07T17:15:23.768Z,15.30
2022-10-07T17:25:28.398Z,17.00
2022-10-07T17:35:33.188Z,16.00
2022-10-07T17:45:38.156Z,20.50
2022-10-07T17:55:51.488Z,29.70
2022-10-07T18:05:56.650Z,44.60
2022-10-07T18:16:05.517Z,46.80
2022-10-07T18:26:12.306Z,45.30
2022-10-07T18:36:19.869Z,30.60
2022-10-07T18:56:30.953Z,39.60
2022-10-07T19:06:39.995Z,30.80
2022-10-07T19:16:48.806Z,35.50
2022-10-07T19:26:55.547Z,28.90
2022-10-07T19:37:02.278Z,33.90
2022-10-07T19:47:08.103Z,38.60
2022-10-07T19:57:13.404Z,33.60
2022-10-07T20:07:18.504Z,31.90
2022-10-07T20:17:23.301Z,27.40
2022-10-07T20:27:27.459Z,25.50
2022-10-07T20:37:31.534Z,34.00
2022-10-07T20:47:35.617Z,26.90
2022-10-07T20:57:39.890Z,27.70
2022-10-07T21:07:43.772Z,21.80
2022-10-07T21:17:49.179Z,23.50
2022-10-07T21:27:53.762Z,24.90
2022-10-07T21:37:58.962Z,24.30
2022-10-07T21:48:02.857Z,23.60
2022-10-07T21:58:06.700Z,23.70
2022-10-07T22:08:34.517Z,26.10
2022-10-07T22:18:38.999Z,28.30
2022-10-07T22:28:43.815Z,25.60
2022-10-07T22:38:47.770Z,28.20
2022-10-07T22:48:54.212Z,33.20
2022-10-07T22:59:00.237Z,20.10
2022-10-07T23:09:04.904Z,24.40
2022-10-07T23:19:09.723Z,27.20
2022-10-07T23:29:14.199Z,29.90
2022-10-07T23:39:18.367Z,18.40
2022-10-07T23:49:21.997Z,14.90
2022-10-07T23:59:25.692Z,17.10
